createdAt,value
2018-03-20T00:05:27.087Z,14.67
2018-03-20T00:11:31.805Z,17.53
2018-03-20T00:17:36.498Z,15.10
2018-03-20T00:23:41.860Z,14.60
2018-03-20T00:29:46.521Z,12.10
2018-03-20T00:35:51.429Z,10.37
2018-03-20T00:41:55.955Z,11.73
2018-03-20T00:48:01.244Z,8.37
2018-03-20T00:54:05.737Z,13.53
2018-03-20T01:00:10.511Z,8.83
2018-03-20T01:06:17.141Z,9.97
2018-03-20T01:12:21.709Z,9.77
2018-03-20T01:18:26.191Z,7.97
2018-03-20T01:24:30.689Z,10.33
2018-03-20T01:30:35.306Z,10.00
2018-03-20T01:36:39.823Z,9.07
2018-03-20T01:42:45.239Z,12.80
2018-03-20T01:48:50.581Z,10.20
2018-03-20T01:54:55.200Z,9.00
2018-03-20T02:00:59.837Z,11.87
2018-03-20T02:07:04.405Z,15.00
2018-03-20T02:13:08.927Z,12.90
2018-03-20T02:19:13.413Z,12.07
2018-03-20T02:25:18.820Z,10.57
2018-03-20T02:31:23.636Z,19.03
2018-03-20T02:37:28.223Z,11.50
2018-03-20T02:43:32.922Z,16.00
2018-03-20T02:49:37.586Z,17.10
2018-03-20T02:55:42.115Z,13.30
2018-03-20T03:01:47.965Z,14.63
2018-03-20T03:07:53.441Z,14.73
2018-03-20T03:13:57.974Z,14.33
2018-03-20T03:20:02.605Z,13.43
2018-03-20T03:26:07.159Z,14.97
2018-03-20T03:32:11.792Z,17.83
2018-03-20T03:38:16.523Z,12.83
2018-03-20T03:44:21.732Z,14.40
2018-03-20T03:50:27.048Z,11.33
2018-03-20T03:56:31.638Z,12.30
2018-03-20T04:02:36.252Z,11.53
2018-03-20T04:08:41.551Z,35.80
2018-03-20T04:14:46.804Z,18.63
2018-03-20T04:20:52.470Z,11.67
2018-03-20T04:26:58.040Z,10.57
2018-03-20T04:33:02.647Z,11.37
2018-03-20T04:39:07.074Z,14.20
2018-03-20T04:45:11.856Z,15.47
2018-03-20T04:51:16.649Z,9.03
2018-03-20T04:57:22.044Z,11.70
2018-03-20T05:03:26.673Z,11.77
2018-03-20T05:09:31.275Z,11.53
2018-03-20T05:15:35.831Z,13.60
2018-03-20T05:21:46.476Z,11.63
2018-03-20T05:27:51.459Z,14.73
2018-03-20T05:33:56.176Z,31.23
2018-03-20T05:40:00.683Z,13.03
2018-03-20T05:46:05.304Z,14.50
2018-03-20T05:52:09.928Z,19.10
2018-03-20T05:58:14.774Z,14.90
2018-03-20T06:04:19.635Z,15.77
2018-03-20T06:10:24.409Z,17.80
2018-03-20T06:16:29.013Z,13.90
2018-03-20T06:22:33.699Z,12.20
2018-03-20T06:28:38.320Z,12.67
2018-03-20T06:34:43.042Z,15.87
2018-03-20T06:40:49.357Z,19.17
2018-03-20T06:46:53.893Z,16.70
2018-03-20T06:52:58.412Z,15.53
2018-03-20T06:59:03.728Z,12.90
2018-03-20T07:05:08.333Z,15.40
2018-03-20T07:11:13.699Z,23.43
2018-03-20T07:17:19.568Z,15.67
2018-03-20T07:23:24.262Z,12.90
2018-03-20T07:29:28.747Z,13.37
2018-03-20T07:35:34.152Z,17.77
2018-03-20T07:41:38.636Z,13.63
2018-03-20T07:47:43.111Z,21.57
2018-03-20T07:53:48.273Z,18.37
2018-03-20T07:59:53.178Z,14.00
2018-03-20T08:05:57.659Z,26.90
2018-03-20T08:12:02.187Z,22.00
2018-03-20T08:18:07.443Z,28.30
2018-03-20T08:24:11.957Z,24.10
2018-03-20T08:30:17.435Z,23.40
2018-03-20T08:36:21.986Z,30.63
2018-03-20T08:42:26.520Z,39.63
2018-03-20T08:48:31.046Z,33.20
2018-03-20T08:54:35.558Z,29.10
2018-03-20T09:00:40.062Z,28.37
2018-03-20T09:06:44.577Z,29.60
2018-03-20T09:12:50.325Z,28.83
2018-03-20T09:18:54.940Z,27.50
2018-03-20T09:24:59.439Z,31.13
2018-03-20T09:31:03.952Z,23.73
2018-03-20T09:37:08.432Z,27.80
2018-03-20T09:43:12.892Z,34.60
2018-03-20T09:49:18.154Z,24.57
2018-03-20T09:55:22.788Z,26.83
2018-03-20T10:01:27.294Z,22.27
2018-03-20T10:07:31.915Z,16.60
2018-03-20T10:13:36.434Z,16.07
2018-03-20T10:19:40.927Z,11.10
2018-03-20T10:25:46.445Z,20.33
2018-03-20T10:31:51.095Z,20.90
2018-03-20T10:37:56.345Z,26.63
2018-03-20T10:44:00.865Z,38.90
2018-03-20T10:50:05.330Z,9.10
2018-03-20T10:56:09.805Z,9.03
2018-03-20T11:02:20.088Z,7.63
2018-03-20T11:08:24.577Z,8.30
2018-03-20T11:14:29.092Z,7.13
2018-03-20T11:20:34.513Z,7.90
2018-03-20T11:26:38.999Z,6.50
2018-03-20T11:32:43.529Z,6.57
2018-03-20T11:38:48.223Z,7.90
2018-03-20T11:44:53.500Z,7.10
2018-03-20T11:50:58.027Z,3.73
2018-03-20T11:57:02.494Z,8.33
2018-03-20T12:03:06.956Z,6.03
2018-03-20T12:09:29.023Z,4.83
2018-03-20T12:15:33.441Z,7.10
2018-03-20T12:21:38.224Z,4.23
2018-03-20T12:27:43.523Z,6.80
2018-03-20T12:33:48.827Z,4.20
2018-03-20T12:39:53.404Z,6.83
2018-03-20T12:45:57.875Z,4.90
2018-03-20T12:52:02.596Z,4.60
2018-03-20T12:58:07.058Z,7.80
2018-03-20T13:04:11.576Z,4.80
2018-03-20T13:10:16.089Z,4.73
2018-03-20T13:16:21.329Z,5.90
2018-03-20T13:22:25.958Z,5.20
2018-03-20T13:28:31.305Z,5.30
2018-03-20T13:34:35.781Z,2.40
2018-03-20T13:40:40.392Z,6.50
2018-03-20T13:46:44.992Z,2.90
2018-03-20T13:52:50.480Z,3.33
2018-03-20T13:58:55.155Z,5.13
2018-03-20T14:05:00.436Z,6.27
2018-03-20T14:11:04.955Z,2.60
2018-03-20T14:17:10.193Z,3.83
2018-03-20T14:23:14.713Z,9.37
2018-03-20T14:29:19.749Z,4.97
2018-03-20T14:35:24.639Z,5.07
2018-03-20T14:41:29.162Z,3.87
2018-03-20T14:47:33.871Z,3.20
2018-03-20T14:53:44.870Z,4.40
2018-03-20T14:59:50.078Z,2.63
2018-03-20T15:05:54.553Z,1.87
2018-03-20T15:11:59.220Z,3.80
2018-03-20T15:18:03.824Z,2.43
2018-03-20T15:24:08.454Z,4.23
2018-03-20T15:30:12.930Z,2.63
2018-03-20T15:36:18.251Z,2.07
2018-03-20T15:42:22.855Z,1.90
2018-03-20T15:48:27.420Z,2.07
2018-03-20T15:54:31.888Z,6.00
2018-03-20T16:00:36.409Z,3.37
2018-03-20T16:06:41.874Z,4.03
2018-03-20T16:12:48.844Z,1.97
2018-03-20T16:18:53.475Z,2.70
2018-03-20T16:24:58.170Z,2.20
2018-03-20T16:31:02.638Z,2.23
2018-03-20T16:37:07.146Z,3.93
2018-03-20T16:43:12.400Z,4.20
2018-03-20T16:49:17.824Z,4.03
2018-03-20T16:55:22.408Z,12.20
2018-03-20T17:01:27.632Z,2.80
2018-03-20T17:07:32.272Z,1.73
2018-03-20T17:13:36.825Z,4.30
2018-03-20T17:19:41.594Z,4.47
2018-03-20T17:25:46.120Z,24.97
2018-03-20T17:31:51.028Z,2.47
2018-03-20T17:37:55.584Z,5.00
2018-03-20T17:44:00.249Z,3.03
2018-03-20T17:50:04.738Z,7.60
2018-03-20T17:56:09.315Z,3.00
2018-03-20T18:02:15.024Z,4.07
2018-03-20T18:21:20.374Z,5.10
2018-03-20T18:27:24.906Z,2.80
2018-03-20T18:33:29.493Z,2.83
2018-03-20T18:39:34.114Z,4.17
2018-03-20T18:45:38.580Z,2.20
2018-03-20T18:51:43.168Z,2.60
2018-03-20T18:57:48.367Z,4.80
2018-03-20T19:03:53.008Z,5.73
2018-03-20T19:09:58.293Z,4.00
2018-03-20T19:16:03.139Z,4.57
2018-03-20T19:22:07.719Z,10.60
2018-03-20T19:28:12.260Z,3.97
2018-03-20T19:34:16.986Z,2.20
2018-03-20T19:40:21.883Z,4.30
2018-03-20T19:46:27.190Z,2.57
2018-03-20T19:52:32.515Z,6.07
2018-03-20T19:58:37.011Z,3.07
2018-03-20T20:04:41.530Z,2.03
2018-03-20T20:10:46.177Z,5.47
2018-03-20T20:16:51.340Z,7.67
2018-03-20T20:22:55.898Z,2.43
2018-03-20T20:29:00.456Z,3.87
2018-03-20T20:35:05.071Z,4.80
2018-03-20T20:41:09.590Z,2.77
2018-03-20T20:47:14.281Z,3.20
2018-03-20T20:53:19.843Z,3.10
2018-03-20T20:59:24.437Z,4.50
2018-03-20T21:05:29.164Z,2.07
2018-03-20T21:11:33.984Z,3.53
2018-03-20T21:17:38.461Z,3.60
2018-03-20T21:23:43.056Z,7.20
2018-03-20T21:29:48.426Z,2.57
2018-03-20T21:35:53.266Z,7.73
2018-03-20T21:41:57.822Z,3.93
2018-03-20T21:48:03.232Z,3.10
2018-03-20T21:54:07.785Z,4.90
2018-03-20T22:00:12.971Z,8.20
2018-03-20T22:06:18.497Z,2.50
2018-03-20T22:12:23.010Z,3.10
2018-03-20T22:18:28.367Z,4.33
2018-03-20T22:24:33.025Z,2.90
2018-03-20T22:30:37.630Z,4.03
2018-03-20T22:36:42.114Z,2.93
2018-03-20T22:42:48.357Z,5.43
2018-03-20T22:48:53.129Z,9.50
2018-03-20T22:54:57.919Z,5.87
2018-03-20T23:01:02.688Z,10.90
2018-03-20T23:07:08.068Z,4.23
2018-03-20T23:13:13.527Z,5.43
2018-03-20T23:19:18.000Z,6.20
2018-03-20T23:25:22.607Z,9.27
2018-03-20T23:31:27.353Z,6.43
2018-03-20T23:37:31.824Z,2.60
2018-03-20T23:43:36.301Z,4.40
2018-03-20T23:49:40.821Z,4.10
2018-03-20T23:55:45.354Z,3.77
